Rechercher aéroport 
image banner adimage banner adimage banner ad
image banner ad

KMHR - Sacramento Mather

Situé à Sacramento, United States

ICAO - MHR, IATA - MHR

Données fournies par Airmate  

Information générale

Coordonnées: N38°33'19" W121°17'50"
Élévation : 98 feet MSL.
Variation magnétique : 13° East
Voir autres Aéroports à California

Données opérationnelles

Special qualification required
Heure actuelle UTC:
Heure actuelle locale:
Météo
METAR: KMHR 251650Z 15006KT 10SM FEW150 23/10 A2989
TAF: KMHR 251120Z 2512/2612 15006KT P6SM SCT200 FM260000 22011KT P6SM FEW150 BKN250 FM260600 15008KT P6SM FEW150 BKN250 AMD NOT SKED
Voir NOTAMs / SUP AIP / TFR affectant cet aéroport [VIEW]
Fréquences de communication: [VIEW]

Pistes:

Identifiant RWYQFULongueur (ft)Largeur (ft)SurfaceLDA (ft)
04R54°11301150OTHER
22L234°11301150OTHER
04L54°6081150ASPH
22R234°6081150ASPH

Coordonnées de l'aéroport

Adresse: Sacramento United States

Vue satellite de KMHR